sensor_id;sensor_type;location;lat;lon;timestamp;P1;durP1;ratioP1;P2;durP2;ratioP2
4375;SDS011;2202;50.866;12.750;2023-05-29T00:00:46;13.33;;;10.00;;
4375;SDS011;2202;50.866;12.750;2023-05-29T00:03:13;14.50;;;10.83;;
4375;SDS011;2202;50.866;12.750;2023-05-29T00:05:41;12.17;;;9.13;;
4375;SDS011;2202;50.866;12.750;2023-05-29T00:08:08;11.30;;;9.30;;
4375;SDS011;2202;50.866;12.750;2023-05-29T00:10:35;10.70;;;8.07;;
4375;SDS011;2202;50.866;12.750;2023-05-29T00:13:02;13.47;;;9.07;;
4375;SDS011;2202;50.866;12.750;2023-05-29T00:15:29;9.30;;;7.97;;
4375;SDS011;2202;50.866;12.750;2023-05-29T00:17:56;9.67;;;8.10;;
4375;SDS011;2202;50.866;12.750;2023-05-29T00:20:23;9.93;;;8.10;;
4375;SDS011;2202;50.866;12.750;2023-05-29T00:22:51;9.47;;;6.80;;
4375;SDS011;2202;50.866;12.750;2023-05-29T00:25:18;9.60;;;7.43;;
4375;SDS011;2202;50.866;12.750;2023-05-29T00:27:45;10.17;;;7.20;;
4375;SDS011;2202;50.866;12.750;2023-05-29T00:30:12;10.93;;;8.30;;
4375;SDS011;2202;50.866;12.750;2023-05-29T00:32:39;10.60;;;7.80;;
4375;SDS011;2202;50.866;12.750;2023-05-29T00:35:06;8.33;;;6.60;;
4375;SDS011;2202;50.866;12.750;2023-05-29T00:37:34;9.13;;;7.30;;
4375;SDS011;2202;50.866;12.750;2023-05-29T00:40:03;8.43;;;7.00;;
4375;SDS011;2202;50.866;12.750;2023-05-29T00:42:31;7.00;;;6.30;;
4375;SDS011;2202;50.866;12.750;2023-05-29T00:44:58;7.30;;;6.37;;
4375;SDS011;2202;50.866;12.750;2023-05-29T00:47:25;9.30;;;7.17;;
4375;SDS011;2202;50.866;12.750;2023-05-29T00:49:52;8.23;;;7.40;;
4375;SDS011;2202;50.866;12.750;2023-05-29T00:52:21;7.97;;;6.77;;
4375;SDS011;2202;50.866;12.750;2023-05-29T00:54:49;9.50;;;7.10;;
4375;SDS011;2202;50.866;12.750;2023-05-29T00:57:17;8.70;;;7.83;;
4375;SDS011;2202;50.866;12.750;2023-05-29T00:59:45;7.43;;;6.73;;
4375;SDS011;2202;50.866;12.750;2023-05-29T01:02:12;7.60;;;6.70;;
4375;SDS011;2202;50.866;12.750;2023-05-29T01:04:43;7.63;;;6.90;;
4375;SDS011;2202;50.866;12.750;2023-05-29T01:07:11;7.80;;;7.10;;
4375;SDS011;2202;50.866;12.750;2023-05-29T01:09:39;7.03;;;6.33;;
4375;SDS011;2202;50.866;12.750;2023-05-29T01:12:08;6.47;;;5.87;;
4375;SDS011;2202;50.866;12.750;2023-05-29T01:14:48;7.73;;;7.07;;
4375;SDS011;2202;50.866;12.750;2023-05-29T01:17:28;7.43;;;6.63;;
4375;SDS011;2202;50.866;12.750;2023-05-29T01:20:08;6.83;;;6.13;;
4375;SDS011;2202;50.866;12.750;2023-05-29T01:22:53;6.90;;;6.27;;
4375;SDS011;2202;50.866;12.750;2023-05-29T01:25:40;7.90;;;6.00;;
4375;SDS011;2202;50.866;12.750;2023-05-29T01:28:21;9.30;;;6.23;;
4375;SDS011;2202;50.866;12.750;2023-05-29T01:30:51;6.80;;;6.17;;
4375;SDS011;2202;50.866;12.750;2023-05-29T01:33:20;7.80;;;6.63;;
4375;SDS011;2202;50.866;12.750;2023-05-29T01:35:47;7.37;;;6.67;;
4375;SDS011;2202;50.866;12.750;2023-05-29T01:38:14;8.33;;;7.30;;
4375;SDS011;2202;50.866;12.750;2023-05-29T01:40:41;7.30;;;6.53;;
4375;SDS011;2202;50.866;12.750;2023-05-29T01:43:08;7.97;;;6.53;;
4375;SDS011;2202;50.866;12.750;2023-05-29T01:45:37;8.03;;;6.73;;
4375;SDS011;2202;50.866;12.750;2023-05-29T01:48:05;6.80;;;6.10;;
4375;SDS011;2202;50.866;12.750;2023-05-29T01:50:32;7.17;;;6.47;;
4375;SDS011;2202;50.866;12.750;2023-05-29T01:53:01;7.37;;;6.60;;
4375;SDS011;2202;50.866;12.750;2023-05-29T01:55:28;6.83;;;6.10;;
4375;SDS011;2202;50.866;12.750;2023-05-29T01:57:55;8.13;;;6.50;;
4375;SDS011;2202;50.866;12.750;2023-05-29T02:00:23;7.57;;;6.00;;
4375;SDS011;2202;50.866;12.750;2023-05-29T02:02:51;7.37;;;6.67;;
4375;SDS011;2202;50.866;12.750;2023-05-29T02:05:18;8.30;;;6.90;;
4375;SDS011;2202;50.866;12.750;2023-05-29T02:07:46;6.67;;;6.07;;
4375;SDS011;2202;50.866;12.750;2023-05-29T02:10:13;7.23;;;6.63;;
4375;SDS011;2202;50.866;12.750;2023-05-29T02:12:40;8.07;;;6.27;;
4375;SDS011;2202;50.866;12.750;2023-05-29T02:15:07;6.13;;;5.53;;
4375;SDS011;2202;50.866;12.750;2023-05-29T02:17:36;7.67;;;6.93;;
4375;SDS011;2202;50.866;12.750;2023-05-29T02:20:04;8.37;;;6.70;;
4375;SDS011;2202;50.866;12.750;2023-05-29T02:22:32;7.37;;;6.57;;
4375;SDS011;2202;50.866;12.750;2023-05-29T02:24:59;7.70;;;6.90;;
4375;SDS011;2202;50.866;12.750;2023-05-29T02:27:26;8.83;;;6.87;;
4375;SDS011;2202;50.866;12.750;2023-05-29T02:29:53;7.47;;;5.73;;
4375;SDS011;2202;50.866;12.750;2023-05-29T02:32:19;7.70;;;6.90;;
4375;SDS011;2202;50.866;12.750;2023-05-29T02:34:47;7.13;;;6.43;;
4375;SDS011;2202;50.866;12.750;2023-05-29T02:37:16;6.60;;;6.10;;
4375;SDS011;2202;50.866;12.750;2023-05-29T02:39:43;8.80;;;6.70;;
4375;SDS011;2202;50.866;12.750;2023-05-29T02:42:09;7.77;;;6.97;;
4375;SDS011;2202;50.866;12.750;2023-05-29T02:44:36;11.10;;;5.63;;
4375;SDS011;2202;50.866;12.750;2023-05-29T02:47:03;10.80;;;6.70;;
4375;SDS011;2202;50.866;12.750;2023-05-29T02:49:31;8.07;;;6.77;;
4375;SDS011;2202;50.866;12.750;2023-05-29T02:51:57;7.43;;;6.20;;
4375;SDS011;2202;50.866;12.750;2023-05-29T02:54:26;10.53;;;7.10;;
4375;SDS011;2202;50.866;12.750;2023-05-29T02:56:53;9.40;;;7.50;;
4375;SDS011;2202;50.866;12.750;2023-05-29T02:59:20;10.00;;;6.80;;
4375;SDS011;2202;50.866;12.750;2023-05-29T03:01:46;6.33;;;5.73;;
4375;SDS011;2202;50.866;12.750;2023-05-29T03:04:13;9.37;;;6.60;;
4375;SDS011;2202;50.866;12.750;2023-05-29T03:06:42;7.17;;;6.47;;
4375;SDS011;2202;50.866;12.750;2023-05-29T03:09:10;10.37;;;6.67;;
4375;SDS011;2202;50.866;12.750;2023-05-29T03:11:38;8.63;;;7.57;;
4375;SDS011;2202;50.866;12.750;2023-05-29T03:14:06;7.47;;;6.73;;
4375;SDS011;2202;50.866;12.750;2023-05-29T03:16:33;9.47;;;7.43;;
4375;SDS011;2202;50.866;12.750;2023-05-29T03:19:03;7.73;;;7.00;;
4375;SDS011;2202;50.866;12.750;2023-05-29T03:21:30;8.47;;;7.70;;
4375;SDS011;2202;50.866;12.750;2023-05-29T03:23:57;8.40;;;6.33;;
4375;SDS011;2202;50.866;12.750;2023-05-29T03:26:24;7.37;;;6.53;;
4375;SDS011;2202;50.866;12.750;2023-05-29T03:28:53;6.63;;;6.03;;
4375;SDS011;2202;50.866;12.750;2023-05-29T03:31:20;7.63;;;6.80;;
4375;SDS011;2202;50.866;12.750;2023-05-29T03:33:47;7.90;;;7.10;;
4375;SDS011;2202;50.866;12.750;2023-05-29T03:36:16;11.70;;;7.07;;
4375;SDS011;2202;50.866;12.750;2023-05-29T03:38:43;9.40;;;7.77;;
4375;SDS011;2202;50.866;12.750;2023-05-29T03:41:09;8.33;;;7.63;;
4375;SDS011;2202;50.866;12.750;2023-05-29T03:43:37;8.00;;;7.30;;
4375;SDS011;2202;50.866;12.750;2023-05-29T03:46:05;9.57;;;8.43;;
4375;SDS011;2202;50.866;12.750;2023-05-29T03:48:32;17.77;;;11.67;;
4375;SDS011;2202;50.866;12.750;2023-05-29T03:50:59;10.63;;;9.53;;
4375;SDS011;2202;50.866;12.750;2023-05-29T03:53:25;10.33;;;9.30;;
4375;SDS011;2202;50.866;12.750;2023-05-29T03:55:52;10.00;;;8.73;;
4375;SDS011;2202;50.866;12.750;2023-05-29T03:58:19;11.03;;;10.03;;
4375;SDS011;2202;50.866;12.750;2023-05-29T04:00:46;11.93;;;9.47;;
4375;SDS011;2202;50.866;12.750;2023-05-29T04:03:14;8.80;;;7.90;;
4375;SDS011;2202;50.866;12.750;2023-05-29T04:05:41;10.27;;;9.17;;
4375;SDS011;2202;50.866;12.750;2023-05-29T04:08:08;12.97;;;9.80;;
4375;SDS011;2202;50.866;12.750;2023-05-29T04:10:35;10.20;;;8.53;;
4375;SDS011;2202;50.866;12.750;2023-05-29T04:13:02;12.57;;;8.57;;
4375;SDS011;2202;50.866;12.750;2023-05-29T04:15:29;10.53;;;9.00;;
4375;SDS011;2202;50.866;12.750;2023-05-29T04:17:58;9.00;;;8.10;;
4375;SDS011;2202;50.866;12.750;2023-05-29T04:20:26;10.97;;;8.80;;
4375;SDS011;2202;50.866;12.750;2023-05-29T04:22:53;10.20;;;9.20;;
4375;SDS011;2202;50.866;12.750;2023-05-29T04:25:20;10.30;;;8.80;;
4375;SDS011;2202;50.866;12.750;2023-05-29T04:27:47;10.00;;;9.10;;
4375;SDS011;2202;50.866;12.750;2023-05-29T04:30:15;9.80;;;8.83;;
4375;SDS011;2202;50.866;12.750;2023-05-29T04:32:42;9.17;;;8.27;;
4375;SDS011;2202;50.866;12.750;2023-05-29T04:35:09;9.57;;;8.43;;
4375;SDS011;2202;50.866;12.750;2023-05-29T04:37:38;10.03;;;8.27;;
4375;SDS011;2202;50.866;12.750;2023-05-29T04:40:05;11.10;;;9.27;;
4375;SDS011;2202;50.866;12.750;2023-05-29T04:42:34;9.20;;;8.20;;
4375;SDS011;2202;50.866;12.750;2023-05-29T04:45:01;9.07;;;8.23;;
4375;SDS011;2202;50.866;12.750;2023-05-29T04:47:28;11.10;;;8.83;;
4375;SDS011;2202;50.866;12.750;2023-05-29T04:49:58;10.10;;;9.03;;
4375;SDS011;2202;50.866;12.750;2023-05-29T04:52:25;8.73;;;7.83;;
4375;SDS011;2202;50.866;12.750;2023-05-29T04:54:53;9.40;;;8.40;;
4375;SDS011;2202;50.866;12.750;2023-05-29T04:57:21;11.60;;;9.23;;
4375;SDS011;2202;50.866;12.750;2023-05-29T04:59:48;12.87;;;9.47;;
4375;SDS011;2202;50.866;12.750;2023-05-29T05:02:15;10.83;;;8.67;;
4375;SDS011;2202;50.866;12.750;2023-05-29T05:04:42;11.13;;;10.03;;
4375;SDS011;2202;50.866;12.750;2023-05-29T05:07:10;11.60;;;8.90;;
4375;SDS011;2202;50.866;12.750;2023-05-29T05:09:38;12.10;;;8.70;;
4375;SDS011;2202;50.866;12.750;2023-05-29T05:12:06;12.70;;;9.50;;
4375;SDS011;2202;50.866;12.750;2023-05-29T05:14:33;10.20;;;9.10;;
4375;SDS011;2202;50.866;12.750;2023-05-29T05:17:00;11.93;;;9.40;;
4375;SDS011;2202;50.866;12.750;2023-05-29T05:19:27;10.53;;;9.53;;
4375;SDS011;2202;50.866;12.750;2023-05-29T05:21:54;12.43;;;10.00;;
4375;SDS011;2202;50.866;12.750;2023-05-29T05:24:21;12.70;;;11.07;;
4375;SDS011;2202;50.866;12.750;2023-05-29T05:26:48;10.50;;;9.10;;
4375;SDS011;2202;50.866;12.750;2023-05-29T05:29:16;10.37;;;9.10;;
4375;SDS011;2202;50.866;12.750;2023-05-29T05:31:43;9.93;;;8.90;;
4375;SDS011;2202;50.866;12.750;2023-05-29T05:34:11;14.87;;;9.60;;
4375;SDS011;2202;50.866;12.750;2023-05-29T05:36:37;11.43;;;9.70;;
4375;SDS011;2202;50.866;12.750;2023-05-29T05:39:04;13.13;;;9.50;;
4375;SDS011;2202;50.866;12.750;2023-05-29T05:41:31;12.33;;;8.97;;
4375;SDS011;2202;50.866;12.750;2023-05-29T05:43:58;11.03;;;9.60;;
4375;SDS011;2202;50.866;12.750;2023-05-29T05:46:26;12.13;;;9.10;;
4375;SDS011;2202;50.866;12.750;2023-05-29T05:48:53;9.90;;;8.43;;
4375;SDS011;2202;50.866;12.750;2023-05-29T05:51:22;15.07;;;9.60;;
4375;SDS011;2202;50.866;12.750;2023-05-29T05:53:48;12.97;;;9.70;;
4375;SDS011;2202;50.866;12.750;2023-05-29T05:56:15;10.20;;;9.10;;
4375;SDS011;2202;50.866;12.750;2023-05-29T05:58:42;11.03;;;9.73;;
4375;SDS011;2202;50.866;12.750;2023-05-29T06:01:09;10.27;;;9.30;;
4375;SDS011;2202;50.866;12.750;2023-05-29T06:03:37;15.73;;;14.10;;
4375;SDS011;2202;50.866;12.750;2023-05-29T06:06:04;11.97;;;10.10;;
4375;SDS011;2202;50.866;12.750;2023-05-29T06:08:32;16.83;;;9.40;;
4375;SDS011;2202;50.866;12.750;2023-05-29T06:10:58;11.63;;;10.40;;
4375;SDS011;2202;50.866;12.750;2023-05-29T06:13:25;11.83;;;8.57;;
4375;SDS011;2202;50.866;12.750;2023-05-29T06:15:52;9.40;;;8.47;;
4375;SDS011;2202;50.866;12.750;2023-05-29T06:18:19;9.73;;;8.70;;
4375;SDS011;2202;50.866;12.750;2023-05-29T06:20:47;9.00;;;8.10;;
4375;SDS011;2202;50.866;12.750;2023-05-29T06:23:15;10.53;;;9.33;;
4375;SDS011;2202;50.866;12.750;2023-05-29T06:25:42;13.33;;;9.30;;
4375;SDS011;2202;50.866;12.750;2023-05-29T06:28:09;10.30;;;8.50;;
4375;SDS011;2202;50.866;12.750;2023-05-29T06:30:36;13.63;;;8.90;;
4375;SDS011;2202;50.866;12.750;2023-05-29T06:33:03;13.03;;;8.23;;
4375;SDS011;2202;50.866;12.750;2023-05-29T06:35:29;8.93;;;7.77;;
4375;SDS011;2202;50.866;12.750;2023-05-29T06:37:57;9.17;;;8.10;;
4375;SDS011;2202;50.866;12.750;2023-05-29T06:40:24;9.20;;;8.27;;
4375;SDS011;2202;50.866;12.750;2023-05-29T06:42:51;12.47;;;8.17;;
4375;SDS011;2202;50.866;12.750;2023-05-29T06:45:18;11.30;;;7.90;;
4375;SDS011;2202;50.866;12.750;2023-05-29T06:47:45;10.80;;;7.60;;
4375;SDS011;2202;50.866;12.750;2023-05-29T06:50:12;13.50;;;8.37;;
4375;SDS011;2202;50.866;12.750;2023-05-29T06:52:39;11.10;;;8.17;;
4375;SDS011;2202;50.866;12.750;2023-05-29T06:55:08;13.30;;;8.03;;
4375;SDS011;2202;50.866;12.750;2023-05-29T06:57:35;13.13;;;8.60;;
4375;SDS011;2202;50.866;12.750;2023-05-29T07:00:02;12.30;;;7.63;;
4375;SDS011;2202;50.866;12.750;2023-05-29T07:02:30;15.03;;;7.80;;
4375;SDS011;2202;50.866;12.750;2023-05-29T07:04:57;13.60;;;8.30;;
4375;SDS011;2202;50.866;12.750;2023-05-29T07:07:24;16.33;;;10.13;;
4375;SDS011;2202;50.866;12.750;2023-05-29T07:09:51;14.13;;;8.37;;
4375;SDS011;2202;50.866;12.750;2023-05-29T07:12:21;12.70;;;8.10;;
4375;SDS011;2202;50.866;12.750;2023-05-29T07:14:48;13.50;;;8.60;;
4375;SDS011;2202;50.866;12.750;2023-05-29T07:17:15;13.67;;;7.70;;
4375;SDS011;2202;50.866;12.750;2023-05-29T07:19:42;15.60;;;8.57;;
4375;SDS011;2202;50.866;12.750;2023-05-29T07:22:09;14.73;;;8.43;;
4375;SDS011;2202;50.866;12.750;2023-05-29T07:24:35;16.20;;;9.27;;
4375;SDS011;2202;50.866;12.750;2023-05-29T07:27:02;14.87;;;10.17;;
4375;SDS011;2202;50.866;12.750;2023-05-29T07:29:31;12.50;;;8.43;;
4375;SDS011;2202;50.866;12.750;2023-05-29T07:31:58;16.10;;;9.13;;
4375;SDS011;2202;50.866;12.750;2023-05-29T07:34:25;20.03;;;10.07;;
4375;SDS011;2202;50.866;12.750;2023-05-29T07:36:56;14.97;;;8.70;;
4375;SDS011;2202;50.866;12.750;2023-05-29T07:39:24;14.97;;;8.63;;
4375;SDS011;2202;50.866;12.750;2023-05-29T07:41:51;12.77;;;8.13;;
4375;SDS011;2202;50.866;12.750;2023-05-29T07:44:17;13.10;;;8.60;;
4375;SDS011;2202;50.866;12.750;2023-05-29T07:46:46;17.53;;;9.47;;
4375;SDS011;2202;50.866;12.750;2023-05-29T07:49:13;13.53;;;9.13;;
4375;SDS011;2202;50.866;12.750;2023-05-29T07:51:40;12.40;;;9.07;;
4375;SDS011;2202;50.866;12.750;2023-05-29T07:54:07;12.33;;;8.40;;
4375;SDS011;2202;50.866;12.750;2023-05-29T07:56:34;13.43;;;8.20;;
4375;SDS011;2202;50.866;12.750;2023-05-29T07:59:01;11.10;;;9.00;;
4375;SDS011;2202;50.866;12.750;2023-05-29T08:01:28;10.47;;;7.47;;
4375;SDS011;2202;50.866;12.750;2023-05-29T08:03:56;13.30;;;8.20;;
4375;SDS011;2202;50.866;12.750;2023-05-29T08:06:23;10.60;;;8.30;;
4375;SDS011;2202;50.866;12.750;2023-05-29T08:08:50;11.53;;;8.73;;
4375;SDS011;2202;50.866;12.750;2023-05-29T08:11:18;10.93;;;8.33;;
4375;SDS011;2202;50.866;12.750;2023-05-29T08:13:44;13.17;;;8.73;;
4375;SDS011;2202;50.866;12.750;2023-05-29T08:16:11;9.83;;;8.07;;
4375;SDS011;2202;50.866;12.750;2023-05-29T08:18:41;10.77;;;7.43;;
4375;SDS011;2202;50.866;12.750;2023-05-29T08:21:10;10.13;;;6.83;;
4375;SDS011;2202;50.866;12.750;2023-05-29T08:23:37;11.90;;;7.30;;
4375;SDS011;2202;50.866;12.750;2023-05-29T08:26:04;13.37;;;9.10;;
4375;SDS011;2202;50.866;12.750;2023-05-29T08:28:32;13.40;;;7.17;;
4375;SDS011;2202;50.866;12.750;2023-05-29T08:30:59;10.20;;;8.80;;
4375;SDS011;2202;50.866;12.750;2023-05-29T08:33:26;12.37;;;8.00;;
4375;SDS011;2202;50.866;12.750;2023-05-29T08:35:53;10.33;;;7.90;;
4375;SDS011;2202;50.866;12.750;2023-05-29T08:38:21;9.70;;;7.13;;
4375;SDS011;2202;50.866;12.750;2023-05-29T08:40:50;9.80;;;7.30;;
4375;SDS011;2202;50.866;12.750;2023-05-29T08:43:19;9.97;;;7.30;;
4375;SDS011;2202;50.866;12.750;2023-05-29T08:45:52;11.40;;;6.50;;
4375;SDS011;2202;50.866;12.750;2023-05-29T08:48:22;8.70;;;7.17;;
4375;SDS011;2202;50.866;12.750;2023-05-29T08:50:51;9.53;;;6.83;;
4375;SDS011;2202;50.866;12.750;2023-05-29T08:53:20;7.77;;;6.17;;
4375;SDS011;2202;50.866;12.750;2023-05-29T08:55:49;9.93;;;6.70;;
4375;SDS011;2202;50.866;12.750;2023-05-29T08:58:17;8.37;;;6.23;;
4375;SDS011;2202;50.866;12.750;2023-05-29T09:00:47;9.97;;;6.30;;
4375;SDS011;2202;50.866;12.750;2023-05-29T09:03:15;7.27;;;6.00;;
4375;SDS011;2202;50.866;12.750;2023-05-29T09:05:42;10.00;;;6.27;;
4375;SDS011;2202;50.866;12.750;2023-05-29T09:08:11;8.40;;;6.30;;
4375;SDS011;2202;50.866;12.750;2023-05-29T09:10:41;8.70;;;6.37;;
4375;SDS011;2202;50.866;12.750;2023-05-29T09:13:08;10.27;;;7.13;;
4375;SDS011;2202;50.866;12.750;2023-05-29T09:15:36;9.43;;;8.00;;
4375;SDS011;2202;50.866;12.750;2023-05-29T09:18:05;8.70;;;6.70;;
4375;SDS011;2202;50.866;12.750;2023-05-29T09:20:33;8.03;;;5.80;;
4375;SDS011;2202;50.866;12.750;2023-05-29T09:23:01;8.37;;;6.10;;
4375;SDS011;2202;50.866;12.750;2023-05-29T09:25:30;7.83;;;5.33;;
4375;SDS011;2202;50.866;12.750;2023-05-29T09:28:00;8.33;;;5.93;;
4375;SDS011;2202;50.866;12.750;2023-05-29T09:30:36;6.80;;;5.77;;
4375;SDS011;2202;50.866;12.750;2023-05-29T09:33:04;7.17;;;5.97;;
4375;SDS011;2202;50.866;12.750;2023-05-29T09:35:35;7.33;;;5.60;;
4375;SDS011;2202;50.866;12.750;2023-05-29T09:38:05;7.43;;;6.07;;
4375;SDS011;2202;50.866;12.750;2023-05-29T09:40:32;9.10;;;5.53;;
4375;SDS011;2202;50.866;12.750;2023-05-29T09:43:06;6.37;;;4.87;;
4375;SDS011;2202;50.866;12.750;2023-05-29T09:45:36;7.10;;;4.90;;
4375;SDS011;2202;50.866;12.750;2023-05-29T09:48:05;7.93;;;5.00;;
4375;SDS011;2202;50.866;12.750;2023-05-29T09:50:33;6.17;;;4.90;;
4375;SDS011;2202;50.866;12.750;2023-05-29T09:53:00;5.60;;;4.63;;
4375;SDS011;2202;50.866;12.750;2023-05-29T09:55:28;12.87;;;5.73;;
4375;SDS011;2202;50.866;12.750;2023-05-29T09:57:58;8.97;;;5.97;;
4375;SDS011;2202;50.866;12.750;2023-05-29T10:00:28;8.70;;;5.50;;
4375;SDS011;2202;50.866;12.750;2023-05-29T10:02:56;6.63;;;5.07;;
4375;SDS011;2202;50.866;12.750;2023-05-29T10:05:23;7.27;;;5.00;;
4375;SDS011;2202;50.866;12.750;2023-05-29T10:07:50;9.57;;;5.50;;
4375;SDS011;2202;50.866;12.750;2023-05-29T10:10:20;7.90;;;4.40;;
4375;SDS011;2202;50.866;12.750;2023-05-29T10:12:52;6.27;;;5.07;;
4375;SDS011;2202;50.866;12.750;2023-05-29T10:15:20;6.07;;;5.13;;
4375;SDS011;2202;50.866;12.750;2023-05-29T10:17:57;8.53;;;4.70;;
4375;SDS011;2202;50.866;12.750;2023-05-29T10:20:27;6.47;;;4.70;;
4375;SDS011;2202;50.866;12.750;2023-05-29T10:22:55;5.40;;;4.50;;
4375;SDS011;2202;50.866;12.750;2023-05-29T10:25:25;8.27;;;4.80;;
4375;SDS011;2202;50.866;12.750;2023-05-29T10:27:55;9.20;;;5.03;;
4375;SDS011;2202;50.866;12.750;2023-05-29T10:30:25;6.93;;;4.27;;
4375;SDS011;2202;50.866;12.750;2023-05-29T10:33:11;4.83;;;4.30;;
4375;SDS011;2202;50.866;12.750;2023-05-29T10:35:51;4.63;;;4.23;;
4375;SDS011;2202;50.866;12.750;2023-05-29T10:38:24;6.20;;;4.27;;
4375;SDS011;2202;50.866;12.750;2023-05-29T10:40:51;5.77;;;4.60;;
4375;SDS011;2202;50.866;12.750;2023-05-29T10:43:29;4.93;;;4.00;;
4375;SDS011;2202;50.866;12.750;2023-05-29T10:45:57;4.87;;;3.93;;
4375;SDS011;2202;50.866;12.750;2023-05-29T10:48:41;7.33;;;4.87;;
4375;SDS011;2202;50.866;12.750;2023-05-29T10:51:10;4.90;;;4.20;;
4375;SDS011;2202;50.866;12.750;2023-05-29T10:53:51;6.73;;;3.97;;
4375;SDS011;2202;50.866;12.750;2023-05-29T10:56:20;3.90;;;3.50;;
4375;SDS011;2202;50.866;12.750;2023-05-29T10:58:52;5.80;;;4.07;;
4375;SDS011;2202;50.866;12.750;2023-05-29T11:01:21;6.27;;;4.03;;
4375;SDS011;2202;50.866;12.750;2023-05-29T11:03:49;5.10;;;4.60;;
4375;SDS011;2202;50.866;12.750;2023-05-29T11:06:17;6.70;;;3.90;;
4375;SDS011;2202;50.866;12.750;2023-05-29T11:08:45;8.13;;;4.63;;
4375;SDS011;2202;50.866;12.750;2023-05-29T11:11:13;6.60;;;4.63;;
4375;SDS011;2202;50.866;12.750;2023-05-29T11:13:41;6.70;;;4.80;;
4375;SDS011;2202;50.866;12.750;2023-05-29T11:16:19;5.60;;;4.70;;
4375;SDS011;2202;50.866;12.750;2023-05-29T11:19:04;5.20;;;3.43;;
4375;SDS011;2202;50.866;12.750;2023-05-29T11:21:33;6.43;;;4.20;;
4375;SDS011;2202;50.866;12.750;2023-05-29T11:24:06;4.80;;;3.90;;
4375;SDS011;2202;50.866;12.750;2023-05-29T11:26:33;6.30;;;4.47;;
4375;SDS011;2202;50.866;12.750;2023-05-29T11:29:03;4.03;;;3.60;;
4375;SDS011;2202;50.866;12.750;2023-05-29T11:31:31;5.23;;;4.73;;
4375;SDS011;2202;50.866;12.750;2023-05-29T11:34:01;5.83;;;5.00;;
4375;SDS011;2202;50.866;12.750;2023-05-29T11:36:32;5.97;;;4.47;;
4375;SDS011;2202;50.866;12.750;2023-05-29T11:39:00;6.90;;;4.03;;
4375;SDS011;2202;50.866;12.750;2023-05-29T11:41:28;10.70;;;4.57;;
4375;SDS011;2202;50.866;12.750;2023-05-29T11:43:56;8.60;;;4.73;;
4375;SDS011;2202;50.866;12.750;2023-05-29T11:46:23;6.47;;;4.40;;
4375;SDS011;2202;50.866;12.750;2023-05-29T11:48:51;13.73;;;4.57;;
4375;SDS011;2202;50.866;12.750;2023-05-29T11:51:18;6.40;;;4.57;;
4375;SDS011;2202;50.866;12.750;2023-05-29T11:53:48;7.50;;;4.60;;
4375;SDS011;2202;50.866;12.750;2023-05-29T11:56:18;5.53;;;4.07;;
4375;SDS011;2202;50.866;12.750;2023-05-29T11:58:46;7.17;;;4.60;;
4375;SDS011;2202;50.866;12.750;2023-05-29T12:01:15;5.50;;;4.00;;
4375;SDS011;2202;50.866;12.750;2023-05-29T12:03:44;5.83;;;4.50;;
4375;SDS011;2202;50.866;12.750;2023-05-29T12:06:11;4.67;;;4.13;;
4375;SDS011;2202;50.866;12.750;2023-05-29T12:08:38;5.60;;;4.20;;
4375;SDS011;2202;50.866;12.750;2023-05-29T12:11:07;6.03;;;4.37;;
4375;SDS011;2202;50.866;12.750;2023-05-29T12:13:34;4.57;;;4.07;;
4375;SDS011;2202;50.866;12.750;2023-05-29T12:16:03;4.70;;;3.87;;
4375;SDS011;2202;50.866;12.750;2023-05-29T12:18:31;5.10;;;3.50;;
4375;SDS011;2202;50.866;12.750;2023-05-29T12:20:59;6.70;;;3.70;;
4375;SDS011;2202;50.866;12.750;2023-05-29T12:23:27;4.17;;;3.77;;
4375;SDS011;2202;50.866;12.750;2023-05-29T12:25:54;4.93;;;4.13;;
4375;SDS011;2202;50.866;12.750;2023-05-29T12:28:23;5.00;;;4.10;;
4375;SDS011;2202;50.866;12.750;2023-05-29T12:30:50;13.57;;;5.00;;
4375;SDS011;2202;50.866;12.750;2023-05-29T12:33:27;5.80;;;4.67;;
4375;SDS011;2202;50.866;12.750;2023-05-29T12:36:00;6.40;;;4.90;;
4375;SDS011;2202;50.866;12.750;2023-05-29T12:38:28;6.93;;;4.10;;
4375;SDS011;2202;50.866;12.750;2023-05-29T12:40:55;5.70;;;4.20;;
4375;SDS011;2202;50.866;12.750;2023-05-29T12:43:23;4.27;;;3.87;;
4375;SDS011;2202;50.866;12.750;2023-05-29T12:45:53;8.43;;;4.30;;
4375;SDS011;2202;50.866;12.750;2023-05-29T12:48:25;7.30;;;4.10;;
4375;SDS011;2202;50.866;12.750;2023-05-29T12:50:53;5.33;;;3.90;;
4375;SDS011;2202;50.866;12.750;2023-05-29T12:53:19;4.70;;;3.90;;
4375;SDS011;2202;50.866;12.750;2023-05-29T12:55:46;6.60;;;4.70;;
4375;SDS011;2202;50.866;12.750;2023-05-29T12:58:14;3.90;;;3.57;;
4375;SDS011;2202;50.866;12.750;2023-05-29T13:00:43;4.30;;;3.87;;
4375;SDS011;2202;50.866;12.750;2023-05-29T13:03:10;5.70;;;3.90;;
4375;SDS011;2202;50.866;12.750;2023-05-29T13:05:37;6.23;;;4.97;;
4375;SDS011;2202;50.866;12.750;2023-05-29T13:08:05;7.53;;;5.23;;
4375;SDS011;2202;50.866;12.750;2023-05-29T13:10:33;6.13;;;4.70;;
4375;SDS011;2202;50.866;12.750;2023-05-29T13:13:00;5.43;;;4.70;;
4375;SDS011;2202;50.866;12.750;2023-05-29T13:15:28;4.47;;;4.07;;
4375;SDS011;2202;50.866;12.750;2023-05-29T13:17:59;5.23;;;4.40;;
4375;SDS011;2202;50.866;12.750;2023-05-29T13:20:26;5.57;;;4.10;;
4375;SDS011;2202;50.866;12.750;2023-05-29T13:22:52;5.30;;;4.80;;
4375;SDS011;2202;50.866;12.750;2023-05-29T13:25:20;5.60;;;4.00;;
4375;SDS011;2202;50.866;12.750;2023-05-29T13:27:48;8.60;;;4.60;;
4375;SDS011;2202;50.866;12.750;2023-05-29T13:30:16;6.73;;;4.30;;
4375;SDS011;2202;50.866;12.750;2023-05-29T13:32:43;4.90;;;4.30;;
4375;SDS011;2202;50.866;12.750;2023-05-29T13:35:11;6.27;;;4.20;;
4375;SDS011;2202;50.866;12.750;2023-05-29T13:37:38;5.90;;;4.50;;
4375;SDS011;2202;50.866;12.750;2023-05-29T13:40:05;7.63;;;4.97;;
4375;SDS011;2202;50.866;12.750;2023-05-29T13:42:35;5.13;;;4.20;;
4375;SDS011;2202;50.866;12.750;2023-05-29T13:45:02;5.97;;;4.80;;
4375;SDS011;2202;50.866;12.750;2023-05-29T13:47:31;6.37;;;5.40;;
4375;SDS011;2202;50.866;12.750;2023-05-29T13:49:58;8.27;;;4.27;;
4375;SDS011;2202;50.866;12.750;2023-05-29T13:52:26;5.17;;;4.20;;
4375;SDS011;2202;50.866;12.750;2023-05-29T13:54:53;6.60;;;4.63;;
4375;SDS011;2202;50.866;12.750;2023-05-29T13:57:20;6.20;;;4.40;;
4375;SDS011;2202;50.866;12.750;2023-05-29T13:59:47;4.23;;;3.60;;
4375;SDS011;2202;50.866;12.750;2023-05-29T14:02:14;5.27;;;4.10;;
4375;SDS011;2202;50.866;12.750;2023-05-29T14:04:41;4.27;;;3.87;;
4375;SDS011;2202;50.866;12.750;2023-05-29T14:07:08;4.30;;;3.57;;
4375;SDS011;2202;50.866;12.750;2023-05-29T14:09:37;6.03;;;4.63;;
4375;SDS011;2202;50.866;12.750;2023-05-29T14:12:04;4.80;;;4.30;;
4375;SDS011;2202;50.866;12.750;2023-05-29T14:14:32;6.70;;;4.30;;
4375;SDS011;2202;50.866;12.750;2023-05-29T14:16:59;5.17;;;3.90;;
4375;SDS011;2202;50.866;12.750;2023-05-29T14:19:25;4.90;;;4.40;;
4375;SDS011;2202;50.866;12.750;2023-05-29T14:21:52;7.00;;;4.30;;
4375;SDS011;2202;50.866;12.750;2023-05-29T14:24:19;5.10;;;3.80;;
4375;SDS011;2202;50.866;12.750;2023-05-29T14:26:47;6.83;;;4.73;;
4375;SDS011;2202;50.866;12.750;2023-05-29T14:29:15;5.33;;;4.03;;
4375;SDS011;2202;50.866;12.750;2023-05-29T14:31:43;6.80;;;4.83;;
4375;SDS011;2202;50.866;12.750;2023-05-29T14:34:11;6.10;;;4.57;;
4375;SDS011;2202;50.866;12.750;2023-05-29T14:36:38;6.43;;;4.57;;
4375;SDS011;2202;50.866;12.750;2023-05-29T14:39:06;5.57;;;4.73;;
4375;SDS011;2202;50.866;12.750;2023-05-29T14:41:33;5.80;;;4.67;;
4375;SDS011;2202;50.866;12.750;2023-05-29T14:44:02;5.00;;;4.00;;
4375;SDS011;2202;50.866;12.750;2023-05-29T14:46:29;9.60;;;4.70;;
4375;SDS011;2202;50.866;12.750;2023-05-29T14:48:57;7.10;;;4.20;;
4375;SDS011;2202;50.866;12.750;2023-05-29T14:51:24;5.00;;;4.50;;
4375;SDS011;2202;50.866;12.750;2023-05-29T14:53:51;5.27;;;4.00;;
4375;SDS011;2202;50.866;12.750;2023-05-29T14:56:18;11.73;;;4.30;;
4375;SDS011;2202;50.866;12.750;2023-05-29T14:58:45;4.47;;;3.63;;
4375;SDS011;2202;50.866;12.750;2023-05-29T15:01:14;6.23;;;4.27;;